Time;durP1;ratioP1;P1;durP2;ratioP2;P2;SDS_P1;SDS_P2;PMS_P1;PMS_P2;Temp;Humidity;BMP_temperature;BMP_pressure;BME280_temperature;BME280_humidity;BME280_pressure;Samples;Min_cycle;Max_cycle;Signal;HPM_P1;HPM_P2
2022/02/02 00:01:23;;;;;;;1.83;0.50;;;7.50;99.90;;;;;;5112312;28;20835;-55
2022/02/02 00:03:54;;;;;;;1.10;0.50;;;7.50;99.90;;;;;;5111495;28;20460;-57
2022/02/02 00:06:27;;;;;;;2.00;0.60;;;7.60;99.90;;;;;;5109043;28;20416;-57
2022/02/02 00:08:59;;;;;;;1.00;0.50;;;7.60;99.90;;;;;;5109869;28;20424;-55
2022/02/02 00:12:02;;;;;;;0.90;0.50;;;7.50;99.90;;;;;;5111229;28;20440;-57
2022/02/02 00:14:37;;;;;;;1.00;0.40;;;7.50;99.90;;;;;;5113072;28;20695;-56
2022/02/02 00:17:09;;;;;;;0.77;0.40;;;7.40;98.60;;;;;;5112766;27;20862;-57
2022/02/02 00:19:43;;;;;;;2.10;0.40;;;7.50;91.10;;;;;;5114637;28;20439;-57
2022/02/02 00:22:14;;;;;;;0.80;0.40;;;7.40;81.90;;;;;;5113689;28;20443;-57
2022/02/02 00:24:59;;;;;;;0.80;0.40;;;7.40;74.00;;;;;;5113317;28;20423;-58
2022/02/02 00:27:26;;;;;;;1.20;0.40;;;7.40;60.80;;;;;;5112523;28;20481;-57
2022/02/02 00:29:57;;;;;;;0.50;0.30;;;7.50;50.50;;;;;;5113210;28;20469;-56
2022/02/02 00:32:48;;;;;;;0.90;0.32;;;7.50;31.30;;;;;;5112396;28;20446;-57
2022/02/02 00:35:19;;;;;;;0.60;0.30;;;7.50;34.10;;;;;;5113391;28;20423;-58
2022/02/02 00:37:46;;;;;;;0.77;0.30;;;7.50;38.10;;;;;;5112396;28;20434;-58
2022/02/02 00:40:13;;;;;;;0.90;0.30;;;7.40;33.00;;;;;;5113821;28;20409;-55
2022/02/02 00:42:40;;;;;;;0.90;0.30;;;7.40;39.40;;;;;;5112818;28;20523;-58
2022/02/02 00:45:07;;;;;;;1.20;0.30;;;7.50;37.90;;;;;;5114927;28;20416;-59
2022/02/02 00:47:38;;;;;;;2.10;0.30;;;7.50;37.30;;;;;;5113406;28;20533;-57
2022/02/02 00:50:06;;;;;;;1.30;0.30;;;7.60;19.50;;;;;;5116215;28;20415;-58
2022/02/02 00:52:34;;;;;;;1.10;0.43;;;7.60;18.20;;;;;;5116426;28;20453;-56
2022/02/02 00:55:01;;;;;;;0.60;0.30;;;7.60;16.10;;;;;;5116695;28;20859;-57
2022/02/02 00:57:29;;;;;;;0.50;0.30;;;7.50;19.40;;;;;;5117295;28;20507;-58
2022/02/02 00:59:56;;;;;;;0.90;0.30;;;7.60;20.00;;;;;;5118127;28;20459;-58
2022/02/02 01:02:22;;;;;;;0.60;0.30;;;7.60;17.50;;;;;;5117490;28;20523;-59
2022/02/02 01:04:49;;;;;;;1.60;0.30;;;7.60;8.20;;;;;;5118314;28;20451;-57
2022/02/02 01:07:23;;;;;;;1.30;0.30;;;7.60;1.00;;;;;;5117891;28;20629;-58
2022/02/02 01:10:03;;;;;;;1.45;0.30;;;7.70;1.00;;;;;;5118638;28;20431;-58
2022/02/02 01:12:48;;;;;;;0.55;0.30;;;7.70;1.00;;;;;;5117621;28;20838;-57
2022/02/02 01:20:59;;;;;;;1.27;0.30;;;7.70;1.00;;;;;;5117665;28;20516;-61
2022/02/02 01:28:56;;;;;;;0.80;0.30;;;7.80;1.00;;;;;;5117207;28;20407;-57
2022/02/02 01:31:23;;;;;;;0.70;0.30;;;7.80;1.00;;;;;;5117760;28;20416;-59
2022/02/02 01:33:50;;;;;;;1.80;0.40;;;7.90;1.00;;;;;;5117398;28;20793;-58
2022/02/02 01:36:18;;;;;;;0.60;0.30;;;7.90;1.00;;;;;;5118127;28;20515;-58
2022/02/02 01:38:47;;;;;;;1.80;0.30;;;7.80;1.00;;;;;;5116828;28;20549;-58
2022/02/02 01:41:23;;;;;;;0.70;0.30;;;7.80;1.00;;;;;;5117999;28;21000;-60
2022/02/02 01:43:57;;;;;;;0.90;0.38;;;7.80;1.00;;;;;;5115997;28;20439;-58
2022/02/02 01:46:28;;;;;;;0.80;0.30;;;7.80;1.00;;;;;;5116911;28;20712;-59
2022/02/02 01:49:01;;;;;;;1.00;0.30;;;7.80;1.00;;;;;;5116899;28;20827;-58
2022/02/02 01:54:49;;;;;;;0.90;0.30;;;7.90;1.00;;;;;;5174146;27;20795;-55
2022/02/02 01:57:31;;;;;;;0.70;0.30;;;7.90;1.00;;;;;;5173944;27;20428;-57
2022/02/02 01:59:59;;;;;;;2.50;0.40;;;7.90;1.00;;;;;;5174574;27;20696;-58
2022/02/02 02:02:26;;;;;;;1.10;0.30;;;7.90;1.00;;;;;;5173859;27;20416;-58
2022/02/02 02:04:53;;;;;;;1.30;0.40;;;8.00;1.00;;;;;;5174377;27;20482;-57
2022/02/02 02:07:22;;;;;;;1.30;0.40;;;7.90;1.00;;;;;;5173865;27;20476;-57
2022/02/02 02:09:52;;;;;;;2.03;0.40;;;8.00;1.00;;;;;;5175070;27;20475;-57
2022/02/02 02:12:21;;;;;;;0.80;0.40;;;8.00;1.00;;;;;;5172468;27;20422;-58
2022/02/02 02:14:51;;;;;;;1.00;0.50;;;8.00;1.00;;;;;;5174009;27;20462;-58
2022/02/02 02:17:22;;;;;;;0.93;0.40;;;8.00;1.00;;;;;;5172697;27;20423;-59
2022/02/02 02:19:50;;;;;;;1.00;0.50;;;8.00;1.00;;;;;;5173886;27;20416;-58
2022/02/02 02:22:22;;;;;;;1.80;0.40;;;8.00;1.00;;;;;;5172631;27;20420;-59
2022/02/02 02:24:49;;;;;;;2.50;0.60;;;8.10;1.00;;;;;;5173455;27;20412;-58
2022/02/02 02:27:18;;;;;;;2.13;0.50;;;8.10;1.00;;;;;;5170397;27;20416;-58
2022/02/02 02:57:39;;;;;;;2.80;0.70;;;8.20;1.00;;;;;;5173092;27;20396;-57
2022/02/02 03:13:50;;;;;;;1.80;0.80;;;8.20;1.00;;;;;;5147620;27;20424;-57
2022/02/02 03:29:43;;;;;;;1.52;0.60;;;8.10;1.00;;;;;;5158013;27;20517;-59
2022/02/02 03:31:15;;;;;;;1.48;0.60;;;8.00;1.00;;;;;;5156954;27;20412;-56
2022/02/02 03:50:42;;;;;;;2.50;0.50;;;8.20;1.00;;;;;;5119977;27;20823;-57
2022/02/02 03:56:15;;;;;;;1.88;0.50;;;8.20;1.00;;;;;;5157033;27;20964;-56
2022/02/02 03:58:48;;;;;;;1.00;0.50;;;8.10;1.00;;;;;;5157984;27;20465;-58
2022/02/02 04:01:32;;;;;;;1.40;0.40;;;8.10;1.00;;;;;;5158195;27;20432;-58
2022/02/02 04:04:18;;;;;;;1.70;0.50;;;8.00;1.00;;;;;;5158129;27;20462;-58
2022/02/02 04:06:57;;;;;;;2.17;0.50;;;8.10;1.00;;;;;;5157382;27;20424;-57
2022/02/02 04:09:25;;;;;;;2.00;0.50;;;8.10;1.00;;;;;;5158070;27;20416;-58
2022/02/02 04:11:58;;;;;;;3.30;0.60;;;8.10;1.00;;;;;;5158369;27;20545;-58
2022/02/02 04:53:55;;;;;;;3.95;0.50;;;8.20;1.00;;;;;;5113059;28;20416;-57
2022/02/02 04:56:32;;;;;;;2.10;0.45;;;8.20;1.00;;;;;;5113682;28;20412;-57
2022/02/02 04:59:10;;;;;;;1.80;0.60;;;8.20;1.00;;;;;;5147963;27;20477;-57
2022/02/02 05:02:23;;;;;;;2.42;0.60;;;8.10;1.00;;;;;;5155934;27;20899;-57
2022/02/02 05:05:12;;;;;;;4.28;0.60;;;8.00;1.00;;;;;;5154073;27;20436;-57
2022/02/02 05:07:47;;;;;;;3.80;0.40;;;7.90;1.00;;;;;;5155775;27;20409;-57
2022/02/02 05:10:23;;;;;;;3.13;0.50;;;8.00;1.00;;;;;;5154514;27;20857;-56
2022/02/02 05:15:58;;;;;;;2.63;0.50;;;7.90;1.00;;;;;;5155865;27;20397;-56
2022/02/02 05:18:52;;;;;;;3.13;0.50;;;8.00;1.00;;;;;;5154153;27;20515;-56
2022/02/02 05:21:48;;;;;;;3.58;0.60;;;8.00;1.00;;;;;;5154799;27;20876;-56
2022/02/02 05:41:21;;;;;;;3.65;0.60;;;8.00;1.00;;;;;;5155951;27;20479;-57
2022/02/02 05:44:07;;;;;;;2.00;0.60;;;7.90;1.00;;;;;;5154979;27;20404;-58
2022/02/02 05:49:36;;;;;;;2.30;0.55;;;8.00;1.00;;;;;;5153083;27;20436;-56
2022/02/02 05:52:05;;;;;;;1.35;0.50;;;8.00;1.00;;;;;;5152204;27;20516;-57
2022/02/02 05:54:31;;;;;;;3.40;0.70;;;7.90;1.00;;;;;;5152942;27;20456;-57
2022/02/02 05:57:00;;;;;;;2.57;0.47;;;7.90;1.00;;;;;;5154697;27;20421;-58
2022/02/02 05:59:29;;;;;;;1.67;0.50;;;7.90;1.00;;;;;;5152994;27;20515;-58
2022/02/02 06:01:58;;;;;;;3.10;0.50;;;8.00;1.00;;;;;;5155192;27;20504;-58
2022/02/02 06:04:26;;;;;;;2.28;0.50;;;8.10;1.00;;;;;;5153803;27;20424;-57
2022/02/02 06:06:55;;;;;;;3.10;0.55;;;8.10;99.90;;;;;;5155498;27;20507;-58
2022/02/02 06:09:24;;;;;;;1.40;0.40;;;8.00;99.90;;;;;;5153232;27;20440;-57
2022/02/02 06:11:53;;;;;;;2.13;0.50;;;7.90;99.90;;;;;;5153232;27;20448;-58
2022/02/02 06:14:26;;;;;;;2.70;0.50;;;7.90;1.00;;;;;;5152372;27;20429;-58
2022/02/02 06:16:55;;;;;;;1.80;0.50;;;8.00;99.90;;;;;;5134588;28;20852;-57
2022/02/02 06:19:24;;;;;;;2.15;0.50;;;8.00;1.40;;;;;;5145172;27;20873;-56
2022/02/02 06:21:58;;;;;;;2.90;0.50;;;8.00;1.00;;;;;;5154225;27;20492;-57
2022/02/02 06:24:32;;;;;;;3.97;0.60;;;8.00;1.00;;;;;;5145444;27;20837;-55
2022/02/02 06:27:09;;;;;;;2.92;0.50;;;8.10;99.90;;;;;;5149558;27;20417;-57
2022/02/02 06:29:43;;;;;;;3.80;0.60;;;8.20;1.00;;;;;;5151607;27;20528;-57
2022/02/02 06:32:14;;;;;;;1.10;0.50;;;8.20;1.00;;;;;;5152633;27;20504;-57
2022/02/02 06:34:45;;;;;;;1.35;0.55;;;8.20;1.00;;;;;;5152718;27;20508;-57
2022/02/02 06:37:13;;;;;;;2.60;0.60;;;8.10;1.00;;;;;;5153589;27;20516;-56
2022/02/02 06:39:40;;;;;;;1.60;0.50;;;8.10;64.30;;;;;;5151986;27;20520;-57
2022/02/02 06:42:09;;;;;;;3.60;0.60;;;8.20;99.90;;;;;;5154712;27;20527;-56
2022/02/02 06:44:41;;;;;;;2.65;0.80;;;8.10;99.90;;;;;;5151615;27;20456;-57
2022/02/02 06:47:08;;;;;;;2.65;0.50;;;8.30;99.90;;;;;;5154008;27;20448;-56
2022/02/02 06:49:36;;;;;;;1.60;0.50;;;8.30;92.40;;;;;;5153918;27;20496;-57
2022/02/02 06:52:12;;;;;;;1.77;0.60;;;8.30;99.90;;;;;;5156798;27;20524;-57
2022/02/02 06:54:51;;;;;;;2.88;0.60;;;8.30;99.90;;;;;;5152678;27;20428;-56
2022/02/02 06:57:26;;;;;;;4.95;0.60;;;8.20;99.90;;;;;;5145331;27;20412;-56
2022/02/02 07:00:06;;;;;;;3.30;0.50;;;8.20;99.90;;;;;;5152767;27;20425;-57
2022/02/02 07:02:44;;;;;;;4.07;0.50;;;8.20;99.90;;;;;;5152415;27;20431;-55
2022/02/02 07:05:27;;;;;;;3.05;0.60;;;8.10;99.90;;;;;;5152932;27;20528;-54
2022/02/02 07:08:19;;;;;;;1.80;0.60;;;8.10;1.00;;;;;;5152685;27;20416;-56
2022/02/02 07:11:03;;;;;;;1.60;0.60;;;8.10;1.00;;;;;;5145709;27;20867;-56
2022/02/02 07:13:40;;;;;;;2.80;0.70;;;8.20;1.00;;;;;;5150798;27;20471;-57
2022/02/02 07:16:18;;;;;;;4.00;0.60;;;8.40;1.00;;;;;;5146773;27;20421;-57
2022/02/02 07:19:00;;;;;;;1.70;0.50;;;8.40;1.00;;;;;;5155558;27;20750;-58
2022/02/02 07:21:45;;;;;;;1.10;0.47;;;8.30;99.90;;;;;;5156058;27;20431;-57
2022/02/02 07:29:42;;;;;;;2.78;0.50;;;8.10;1.00;;;;;;5155108;27;20407;-58
2022/02/02 07:32:14;;;;;;;1.90;0.50;;;8.20;1.00;;;;;;5155852;27;20499;-57
2022/02/02 07:34:58;;;;;;;3.25;0.57;;;8.20;1.00;;;;;;5154338;27;20486;-57
2022/02/02 07:37:31;;;;;;;2.65;0.60;;;8.10;1.00;;;;;;5153817;27;20603;-58
2022/02/02 07:40:01;;;;;;;1.30;0.40;;;8.20;1.00;;;;;;5153592;27;20533;-57
2022/02/02 07:42:29;;;;;;;2.50;0.60;;;8.20;1.00;;;;;;5152565;27;20504;-58
2022/02/02 07:45:08;;;;;;;5.68;0.60;;;8.40;1.00;;;;;;5150807;27;20515;-58
2022/02/02 07:47:40;;;;;;;3.10;0.60;;;8.40;1.00;;;;;;5151261;27;20831;-57
2022/02/02 07:50:09;;;;;;;5.03;0.80;;;8.30;1.00;;;;;;5149865;27;20421;-58
2022/02/02 07:52:37;;;;;;;1.58;0.70;;;8.30;1.00;;;;;;5152150;27;20424;-58
2022/02/02 07:55:06;;;;;;;1.60;0.60;;;8.20;1.00;;;;;;5150004;27;20855;-57
2022/02/02 07:57:35;;;;;;;1.77;0.50;;;8.20;1.00;;;;;;5153738;27;20412;-59
2022/02/02 08:00:08;;;;;;;4.72;0.65;;;8.20;1.00;;;;;;5155090;27;20425;-59
2022/02/02 08:02:50;;;;;;;2.00;0.60;;;8.30;1.00;;;;;;5152751;27;20436;-59
2022/02/02 08:05:18;;;;;;;2.10;0.70;;;8.20;1.00;;;;;;5152188;27;20919;-58
2022/02/02 08:07:54;;;;;;;4.07;0.70;;;8.00;1.00;;;;;;5153266;27;20497;-58
2022/02/02 08:10:22;;;;;;;2.47;0.60;;;7.90;1.00;;;;;;5154824;27;20455;-58
2022/02/02 08:12:56;;;;;;;2.60;0.60;;;7.90;1.00;;;;;;5154451;27;20442;-58
2022/02/02 08:15:31;;;;;;;2.87;0.60;;;7.90;1.00;;;;;;5153981;27;20417;-58
2022/02/02 08:18:01;;;;;;;4.88;0.70;;;8.00;1.00;;;;;;5144073;27;20529;-58
2022/02/02 08:20:28;;;;;;;4.68;0.63;;;8.30;1.00;;;;;;5155070;27;20419;-61
2022/02/02 08:22:56;;;;;;;2.97;0.70;;;8.40;1.00;;;;;;5152959;27;20413;-59
2022/02/02 08:25:26;;;;;;;4.30;0.70;;;8.30;1.00;;;;;;5154445;27;20828;-59
2022/02/02 08:27:57;;;;;;;3.78;0.80;;;8.30;1.00;;;;;;5155192;27;20421;-57
2022/02/02 08:30:26;;;;;;;2.75;0.60;;;8.30;1.00;;;;;;5154475;27;20421;-58
2022/02/02 08:32:57;;;;;;;3.33;0.60;;;8.20;1.00;;;;;;5153794;27;20516;-59
2022/02/02 08:35:26;;;;;;;3.40;0.70;;;8.20;1.00;;;;;;5154257;27;20436;-58
2022/02/02 08:38:01;;;;;;;2.22;0.60;;;8.10;1.00;;;;;;5152684;27;20848;-58
2022/02/02 08:40:33;;;;;;;2.00;0.70;;;8.00;1.00;;;;;;5154165;27;20456;-57
2022/02/02 08:43:06;;;;;;;5.20;0.90;;;8.00;22.80;;;;;;5152223;27;20516;-57
2022/02/02 08:45:35;;;;;;;2.55;0.80;;;7.90;35.50;;;;;;5151365;27;20435;-56
2022/02/02 08:48:06;;;;;;;3.30;0.70;;;7.80;56.40;;;;;;5150978;27;20758;-57
2022/02/02 08:50:45;;;;;;;5.70;0.70;;;7.60;75.70;;;;;;5153176;27;20805;-56
2022/02/02 08:53:27;;;;;;;2.47;0.70;;;7.60;96.30;;;;;;5152806;27;20747;-57
2022/02/02 08:56:12;;;;;;;2.83;0.60;;;7.60;99.90;;;;;;5151887;27;20527;-54
2022/02/02 08:58:42;;;;;;;16.38;1.05;;;7.60;97.70;;;;;;5143300;27;20438;-58
2022/02/02 09:01:14;;;;;;;8.35;1.50;;;7.60;99.90;;;;;;5126167;27;20912;-59
2022/02/02 09:06:29;;;;;;;3.60;0.60;;;8.00;65.40;;;;;;5124739;27;20439;-59
2022/02/02 09:09:08;;;;;;;3.55;0.60;;;8.10;27.50;;;;;;5128606;27;20452;-60
2022/02/02 09:20:10;;;;;;;3.40;0.60;;;8.40;1.00;;;;;;5116398;27;20410;-60
2022/02/02 09:25:25;;;;;;;4.10;0.60;;;8.50;1.00;;;;;;5116568;27;20401;-60
2022/02/02 09:36:07;;;;;;;2.30;0.60;;;8.50;1.00;;;;;;5125532;27;20449;-60
2022/02/02 09:38:36;;;;;;;3.20;0.80;;;8.60;1.00;;;;;;5122052;27;20426;-60
2022/02/02 09:44:00;;;;;;;3.60;0.90;;;8.60;1.00;;;;;;5067760;28;20412;-60
2022/02/02 09:46:32;;;;;;;2.88;0.60;;;8.50;1.00;;;;;;5117668;27;20429;-60
2022/02/02 09:49:05;;;;;;;2.90;0.60;;;8.50;1.00;;;;;;5133368;27;20426;-61
2022/02/02 09:51:36;;;;;;;2.53;0.60;;;8.60;1.00;;;;;;5127856;28;20419;-60
2022/02/02 09:54:10;;;;;;;2.30;0.60;;;8.60;1.00;;;;;;5121873;28;20434;-60
2022/02/02 09:57:02;;;;;;;4.70;0.70;;;8.50;1.00;;;;;;5119270;28;20726;-60
2022/02/02 09:59:46;;;;;;;1.52;0.50;;;8.60;1.00;;;;;;5121147;28;20440;-60
2022/02/02 10:02:30;;;;;;;3.90;0.70;;;8.50;1.00;;;;;;5124407;28;20441;-60
2022/02/02 10:05:06;;;;;;;2.90;0.70;;;8.60;1.00;;;;;;5123739;28;20446;-60
2022/02/02 10:08:10;;;;;;;2.30;0.60;;;8.80;1.00;;;;;;5131691;28;20965;-59
2022/02/02 10:13:46;;;;;;;3.40;0.60;;;9.00;99.90;;;;;;5132696;27;20399;-59
2022/02/02 10:16:16;;;;;;;2.70;0.60;;;9.10;10.00;;;;;;5135423;27;20426;-59
2022/02/02 10:18:46;;;;;;;1.50;0.60;;;9.20;1.00;;;;;;5136316;27;20525;-59
2022/02/02 10:21:13;;;;;;;3.33;0.60;;;9.10;1.00;;;;;;5136453;27;20505;-60
2022/02/02 10:23:41;;;;;;;4.20;0.70;;;9.10;53.90;;;;;;5136621;27;20482;-59
2022/02/02 10:26:18;;;;;;;2.40;0.50;;;8.90;99.90;;;;;;5136846;27;20425;-59
2022/02/02 10:28:46;;;;;;;1.52;0.50;;;8.70;1.00;;;;;;5135006;27;20869;-59
2022/02/02 10:31:13;;;;;;;2.20;0.60;;;8.60;1.00;;;;;;5135650;27;20683;-60
2022/02/02 10:33:41;;;;;;;1.80;0.52;;;8.50;1.00;;;;;;5134384;27;20512;-61
2022/02/02 10:36:15;;;;;;;2.75;0.63;;;8.50;1.00;;;;;;5134847;27;20433;-59
2022/02/02 10:38:49;;;;;;;4.78;0.80;;;8.80;1.00;;;;;;5134456;27;20487;-58
2022/02/02 10:41:28;;;;;;;2.45;0.70;;;9.00;1.00;;;;;;5115200;28;20451;-59
2022/02/02 10:44:00;;;;;;;1.85;0.60;;;9.20;1.00;;;;;;5116329;27;20921;-60
2022/02/02 10:46:34;;;;;;;2.45;0.70;;;9.20;1.00;;;;;;5134824;27;20422;-60
2022/02/02 10:49:12;;;;;;;2.00;0.60;;;9.30;1.00;;;;;;5135045;27;20430;-59
2022/02/02 10:51:43;;;;;;;2.20;0.80;;;9.40;1.00;;;;;;5122180;27;20426;-62
2022/02/02 10:54:22;;;;;;;2.13;0.75;;;9.30;1.00;;;;;;5129235;27;20418;-59
2022/02/02 10:57:04;;;;;;;2.55;0.70;;;9.10;1.00;;;;;;5130759;27;20852;-60
2022/02/02 10:59:48;;;;;;;4.05;0.60;;;9.20;1.00;;;;;;5132517;27;20445;-60
2022/02/02 11:07:49;;;;;;;2.90;0.60;;;9.40;99.90;;;;;;5135580;27;20398;-58
2022/02/02 11:10:17;;;;;;;4.18;0.60;;;9.30;1.00;;;;;;5133619;27;20715;-61
2022/02/02 11:12:48;;;;;;;3.25;0.68;;;9.40;1.00;;;;;;5133310;27;20517;-59
2022/02/02 11:15:28;;;;;;;4.20;0.60;;;9.40;7.50;;;;;;5131430;27;20538;-59
2022/02/02 11:18:08;;;;;;;4.78;0.63;;;9.30;1.00;;;;;;5134602;27;20486;-58
2022/02/02 11:20:37;;;;;;;2.28;0.70;;;9.40;1.00;;;;;;5133021;27;20733;-60
2022/02/02 11:23:06;;;;;;;6.65;0.70;;;9.40;99.90;;;;;;5133871;27;20439;-60
2022/02/02 11:25:38;;;;;;;2.20;0.60;;;9.50;99.90;;;;;;5131681;27;20445;-60
2022/02/02 11:28:21;;;;;;;2.00;0.70;;;9.70;99.90;;;;;;5131335;27;20422;-60
2022/02/02 11:30:51;;;;;;;2.00;0.53;;;9.70;1.00;;;;;;5133303;27;20419;-60
2022/02/02 11:33:25;;;;;;;4.85;0.70;;;9.70;99.90;;;;;;5131991;27;20426;-60
2022/02/02 11:35:56;;;;;;;2.80;0.60;;;9.70;99.90;;;;;;5134465;27;20433;-60
2022/02/02 11:38:43;;;;;;;2.30;0.60;;;9.60;1.00;;;;;;5132733;27;20864;-60
2022/02/02 11:41:43;;;;;;;2.40;0.63;;;9.60;1.00;;;;;;5135460;27;20458;-60
2022/02/02 11:44:20;;;;;;;3.27;0.80;;;9.80;1.00;;;;;;5131816;27;20873;-59
2022/02/02 11:46:52;;;;;;;3.90;0.60;;;9.90;99.90;;;;;;5134674;27;20423;-58
2022/02/02 11:49:33;;;;;;;2.55;0.70;;;10.00;99.90;;;;;;5135079;27;20817;-56
2022/02/02 11:52:03;;;;;;;3.40;0.60;;;9.90;1.00;;;;;;5133434;27;20454;-59
2022/02/02 11:54:49;;;;;;;1.80;0.60;;;9.70;99.90;;;;;;5132548;27;20842;-59
2022/02/02 11:57:22;;;;;;;2.47;0.60;;;9.70;15.20;;;;;;5127009;27;20487;-59
2022/02/02 11:59:57;;;;;;;5.32;0.70;;;9.70;1.00;;;;;;5125640;27;21070;-58
2022/02/02 12:02:48;;;;;;;3.22;0.60;;;9.50;1.00;;;;;;5135473;27;20423;-59
2022/02/02 12:05:28;;;;;;;2.65;0.80;;;9.50;99.90;;;;;;5132569;27;20430;-58
2022/02/02 12:11:03;;;;;;;2.78;0.55;;;9.90;1.00;;;;;;5111144;27;20445;-59
2022/02/02 12:20:21;;;;;;;1.38;0.52;;;10.00;99.90;;;;;;5133646;27;20557;-59
2022/02/02 12:47:49;;;;;;;2.00;0.50;;;9.60;99.90;;;;;;5127100;27;20973;-61
2022/02/02 13:02:07;;;;;;;2.17;0.70;;;9.60;1.00;;;;;;5076801;28;20404;-59
2022/02/02 13:04:36;;;;;;;5.40;0.60;;;9.90;1.00;;;;;;5128077;27;20735;-59
2022/02/02 13:07:15;;;;;;;2.03;0.52;;;10.00;59.50;;;;;;5132544;27;20448;-57
2022/02/02 13:09:43;;;;;;;1.67;0.60;;;10.20;1.00;;;;;;5131008;27;20513;-59
2022/02/02 13:12:24;;;;;;;1.65;0.60;;;10.00;1.00;;;;;;5133013;27;20788;-60
2022/02/02 13:17:53;;;;;;;2.10;0.60;;;9.70;1.00;;;;;;5127916;27;20397;-59
2022/02/02 13:20:38;;;;;;;1.90;0.60;;;9.50;1.00;;;;;;5119245;27;20426;-59
2022/02/02 13:23:15;;;;;;;0.90;0.60;;;9.30;99.90;;;;;;5131855;27;20422;-55
2022/02/02 13:25:49;;;;;;;2.50;0.52;;;9.10;1.00;;;;;;5130835;27;20509;-55
2022/02/02 13:28:42;;;;;;;2.00;0.50;;;9.00;1.00;;;;;;5132691;27;20449;-57
2022/02/02 13:31:10;;;;;;;1.50;0.40;;;8.80;1.00;;;;;;5130706;27;20426;-57
2022/02/02 13:33:42;;;;;;;0.60;0.40;;;8.70;1.00;;;;;;5132243;27;20474;-56
2022/02/02 13:36:24;;;;;;;1.60;0.50;;;8.70;1.00;;;;;;5129847;27;20582;-52
2022/02/02 13:39:27;;;;;;;2.60;0.40;;;8.50;1.00;;;;;;5132641;27;20826;-57
2022/02/02 13:45:10;;;;;;;1.67;0.40;;;8.40;1.00;;;;;;5131330;27;20865;-57
2022/02/02 13:48:00;;;;;;;0.60;0.30;;;8.40;1.00;;;;;;5135038;27;20407;-57
2022/02/02 13:50:59;;;;;;;2.63;0.60;;;8.50;1.00;;;;;;5134390;27;20430;-57
2022/02/02 13:53:54;;;;;;;0.90;0.40;;;8.50;1.00;;;;;;5135100;27;20454;-57
2022/02/02 13:56:58;;;;;;;0.90;0.40;;;8.40;1.00;;;;;;5131646;27;20433;-56
2022/02/02 14:03:44;;;;;;;9.45;3.05;;;8.30;1.00;;;;;;5098341;28;20406;-58
2022/02/02 14:05:22;;;;;;;1.70;0.40;;;8.40;1.00;;;;;;5134705;28;20826;-58
2022/02/02 14:07:59;;;;;;;1.40;0.40;;;8.50;1.00;;;;;;5135246;28;20438;-58
2022/02/02 14:10:54;;;;;;;1.83;0.40;;;8.50;1.00;;;;;;5133576;28;20450;-56
2022/02/02 14:32:34;;;;;;;2.10;0.70;;;8.40;1.00;;;;;;5129664;28;20919;-60
2022/02/02 14:35:01;;;;;;;1.50;0.50;;;8.40;1.00;;;;;;5128827;28;20436;-59
2022/02/02 14:37:37;;;;;;;2.90;0.60;;;8.40;1.00;;;;;;5132528;28;20790;-58
2022/02/02 14:40:18;;;;;;;2.00;0.60;;;8.30;1.00;;;;;;5130305;28;20421;-59
2022/02/02 14:42:51;;;;;;;2.03;0.50;;;8.30;1.30;;;;;;5132471;28;20417;-59
2022/02/02 14:45:24;;;;;;;3.40;0.60;;;8.20;5.80;;;;;;5132618;28;20458;-58
2022/02/02 14:47:57;;;;;;;2.10;0.60;;;8.10;21.00;;;;;;5132017;28;20463;-59
2022/02/02 14:50:29;;;;;;;3.22;0.65;;;8.10;28.60;;;;;;5132938;28;20868;-59
2022/02/02 14:53:08;;;;;;;2.00;0.60;;;8.10;35.80;;;;;;5134306;28;20418;-59
2022/02/02 15:28:45;;;;;;;1.80;0.40;;;8.50;1.00;;;;;;5131964;27;20387;-58
2022/02/02 15:31:12;;;;;;;2.50;0.60;;;8.30;3.90;;;;;;5130763;27;20853;-58
2022/02/02 15:33:42;;;;;;;2.50;0.65;;;8.50;3.00;;;;;;5134272;27;20414;-60
2022/02/02 15:36:41;;;;;;;1.25;0.40;;;8.50;1.00;;;;;;5121468;27;20440;-60
2022/02/02 15:39:09;;;;;;;1.45;0.47;;;8.50;1.00;;;;;;5119628;27;21745;-61
2022/02/02 15:41:44;;;;;;;1.40;0.50;;;8.40;1.00;;;;;;5135279;27;20861;-61
2022/02/02 15:56:18;;;;;;;2.13;0.50;;;8.50;1.00;;;;;;5111245;28;20699;-60
2022/02/02 15:58:14;;;;;;;6.75;3.03;;;8.50;2.70;;;;;;5112456;28;20739;-60
2022/02/02 16:03:37;;;;;;;6.57;5.78;;;8.40;7.20;;;;;;5114214;27;20396;-60
2022/02/02 16:06:13;;;;;;;1.30;0.70;;;8.30;3.10;;;;;;5127784;27;20695;-60
2022/02/02 16:08:41;;;;;;;1.30;0.50;;;8.20;19.40;;;;;;5115646;27;20759;-59
2022/02/02 16:11:17;;;;;;;1.40;0.55;;;8.10;29.80;;;;;;5134526;27;20418;-60
2022/02/02 16:13:47;;;;;;;1.75;0.50;;;8.00;31.20;;;;;;5131927;27;20426;-61
2022/02/02 16:16:36;;;;;;;1.90;0.45;;;8.00;43.40;;;;;;5122917;27;20434;-59
2022/02/02 16:19:14;;;;;;;2.40;0.50;;;8.10;27.60;;;;;;5115788;27;20859;-60
2022/02/02 16:25:01;;;;;;;1.10;0.50;;;8.00;38.40;;;;;;5132863;27;20524;-59
2022/02/02 16:35:53;;;;;;;1.55;0.50;;;8.30;1.00;;;;;;5106690;27;20530;-59
2022/02/02 16:38:24;;;;;;;2.70;0.90;;;8.30;17.00;;;;;;5129261;27;20431;-58
2022/02/02 16:40:52;;;;;;;1.60;0.60;;;8.40;22.80;;;;;;5131193;27;20454;-59
2022/02/02 16:43:20;;;;;;;0.80;0.50;;;8.40;7.70;;;;;;5132207;27;20427;-59
2022/02/02 16:45:49;;;;;;;2.08;0.60;;;8.50;9.70;;;;;;5134266;27;20837;-59
2022/02/02 16:48:17;;;;;;;1.30;0.40;;;8.40;1.00;;;;;;5134205;27;20497;-59
2022/02/02 16:50:48;;;;;;;1.40;0.40;;;8.40;1.00;;;;;;5116922;27;20516;-59
2022/02/02 16:53:25;;;;;;;0.80;0.50;;;8.30;7.50;;;;;;5110053;28;20428;-59
2022/02/02 16:56:00;;;;;;;2.00;1.30;;;8.20;15.50;;;;;;5108983;28;20485;-59
2022/02/02 17:31:44;;;;;;;1.60;0.60;;;8.30;6.50;;;;;;5125691;27;20717;-60
2022/02/02 17:34:20;;;;;;;1.20;0.60;;;8.20;20.00;;;;;;5119337;27;20436;-59
2022/02/02 17:36:53;;;;;;;0.90;0.50;;;8.20;32.30;;;;;;5129043;27;20846;-59
2022/02/02 17:39:25;;;;;;;2.00;0.50;;;8.30;36.40;;;;;;5129087;27;20800;-61
2022/02/02 17:44:59;;;;;;;0.93;0.50;;;8.30;31.50;;;;;;5115451;27;20698;-59
2022/02/02 18:20:43;;;;;;;1.80;0.60;;;8.50;65.40;;;;;;5128560;28;20932;-60
2022/02/02 18:23:19;;;;;;;8.15;5.18;;;8.50;34.20;;;;;;5115556;28;20532;-59
2022/02/02 18:25:51;;;;;;;1.40;1.00;;;8.40;35.90;;;;;;5122985;28;20437;-58
2022/02/02 18:28:25;;;;;;;1.30;0.80;;;8.40;52.00;;;;;;5117409;28;20463;-59
2022/02/02 18:31:05;;;;;;;1.30;0.60;;;8.30;59.20;;;;;;5133192;28;20505;-59
2022/02/02 18:33:46;;;;;;;1.30;0.70;;;8.30;58.80;;;;;;5128176;28;20442;-60
2022/02/02 18:36:27;;;;;;;1.98;0.70;;;8.40;87.80;;;;;;5130218;27;20435;-60
2022/02/02 18:47:32;;;;;;;1.40;0.60;;;8.30;64.60;;;;;;5125154;27;20410;-60
2022/02/02 18:50:13;;;;;;;0.80;0.60;;;8.30;92.90;;;;;;5136479;27;20795;-60
2022/02/02 18:55:43;;;;;;;0.80;0.40;;;8.40;90.40;;;;;;5122515;27;20424;-60
2022/02/02 18:58:18;;;;;;;0.70;0.40;;;8.40;89.20;;;;;;5128966;27;20418;-60
2022/02/02 19:00:55;;;;;;;1.00;0.50;;;8.40;62.20;;;;;;5134781;27;20991;-60
2022/02/02 19:03:56;;;;;;;0.70;0.40;;;8.40;86.30;;;;;;5130033;27;20441;-59
2022/02/02 19:15:40;;;;;;;0.80;0.50;;;8.20;90.30;;;;;;5130433;27;20424;-59
2022/02/02 19:37:14;;;;;;;0.80;0.50;;;7.70;99.90;;;;;;5121472;27;20465;-57
2022/02/02 19:37:37;;;;;;;0.77;0.50;;;7.60;99.90;;;;;;5124180;27;20716;-55
2022/02/02 19:40:14;;;;;;;0.80;0.50;;;7.50;99.90;;;;;;5121947;27;20431;-58
2022/02/02 19:56:47;;;;;;;0.97;0.60;;;7.40;99.90;;;;;;5130714;27;20456;-57
2022/02/02 20:02:27;;;;;;;1.20;0.50;;;7.40;99.90;;;;;;5128268;27;20562;-59
2022/02/02 20:05:05;;;;;;;1.70;0.60;;;7.30;99.90;;;;;;5131557;27;20433;-59
2022/02/02 20:07:53;;;;;;;1.20;0.50;;;7.30;99.90;;;;;;5126428;27;20475;-58
2022/02/02 20:13:09;;;;;;;1.00;0.50;;;7.20;99.90;;;;;;5115576;27;20422;-56
2022/02/02 20:15:39;;;;;;;0.70;0.50;;;7.20;99.90;;;;;;5117873;27;20900;-57
2022/02/02 20:18:07;;;;;;;0.90;0.50;;;7.20;99.90;;;;;;5125765;27;20433;-58
2022/02/02 20:20:39;;;;;;;0.80;0.50;;;7.20;99.90;;;;;;5123091;27;20420;-58
2022/02/02 20:23:07;;;;;;;0.80;0.50;;;7.30;99.90;;;;;;5116420;27;20443;-59
2022/02/02 20:25:36;;;;;;;0.90;0.60;;;7.30;99.90;;;;;;5134253;27;20411;-59
2022/02/02 20:28:05;;;;;;;1.60;0.50;;;7.30;99.90;;;;;;5123259;27;20431;-59
2022/02/02 20:30:35;;;;;;;1.05;0.50;;;7.30;99.90;;;;;;5124711;27;20418;-59
2022/02/02 20:33:03;;;;;;;0.95;0.52;;;7.30;99.90;;;;;;5121021;27;20430;-59
2022/02/02 20:35:29;;;;;;;1.00;0.50;;;7.30;99.90;;;;;;5122653;27;20513;-57
2022/02/02 20:37:56;;;;;;;0.80;0.50;;;7.40;99.90;;;;;;5120465;27;20503;-58
2022/02/02 20:40:25;;;;;;;1.00;0.50;;;7.40;99.90;;;;;;5118374;27;20450;-59
2022/02/02 20:42:59;;;;;;;0.82;0.50;;;7.40;99.90;;;;;;5123378;27;20533;-59
2022/02/02 21:10:14;;;;;;;0.90;0.47;;;7.70;99.90;;;;;;5127703;27;20832;-59
2022/02/02 21:15:27;;;;;;;0.85;0.30;;;7.80;99.90;;;;;;5121607;27;20405;-59
2022/02/02 21:17:58;;;;;;;0.70;0.40;;;7.80;99.90;;;;;;5117995;27;20728;-59
2022/02/02 21:20:31;;;;;;;1.30;0.40;;;7.90;99.90;;;;;;5113132;28;20436;-60
2022/02/02 21:23:03;;;;;;;0.57;0.30;;;7.90;99.90;;;;;;5115109;27;20423;-59
2022/02/02 21:25:46;;;;;;;0.50;0.30;;;7.90;99.90;;;;;;5131346;27;20483;-59
2022/02/02 21:28:14;;;;;;;0.80;0.40;;;8.00;99.90;;;;;;5133244;27;20414;-59
2022/02/02 21:30:42;;;;;;;0.70;0.40;;;8.00;99.90;;;;;;5133562;27;20780;-59
2022/02/02 21:33:13;;;;;;;0.60;0.40;;;8.00;99.90;;;;;;5134317;27;20445;-60
2022/02/02 21:35:43;;;;;;;0.82;0.40;;;8.00;99.90;;;;;;5133986;27;20856;-60
2022/02/02 21:38:17;;;;;;;0.70;0.40;;;8.10;99.90;;;;;;5134653;27;20487;-59